createdAt,value
2019-03-28T00:01:34.292Z,10.63
2019-03-28T00:04:16.158Z,10.33
2019-03-28T00:06:57.949Z,9.83
2019-03-28T00:09:40.365Z,9.83
2019-03-28T00:12:22.588Z,10.40
2019-03-28T00:15:04.510Z,9.90
2019-03-28T00:17:46.458Z,10.17
2019-03-28T00:20:28.246Z,9.77
2019-03-28T00:23:29.720Z,10.17
2019-03-28T00:26:12.089Z,9.37
2019-03-28T00:28:54.091Z,9.47
2019-03-28T00:31:36.333Z,10.27
2019-03-28T00:34:18.675Z,9.10
2019-03-28T00:37:01.540Z,8.60
2019-03-28T00:39:43.644Z,8.13
2019-03-28T00:42:25.292Z,8.23
2019-03-28T00:45:07.440Z,8.57
2019-03-28T00:47:49.518Z,7.60
2019-03-28T00:50:33.055Z,8.07
2019-03-28T00:53:15.211Z,7.47
2019-03-28T00:55:56.924Z,8.47
2019-03-28T00:58:38.964Z,7.80
2019-03-28T01:01:20.919Z,7.10
2019-03-28T01:04:02.714Z,8.10
2019-03-28T01:06:44.409Z,7.30
2019-03-28T01:09:26.977Z,8.03
2019-03-28T01:12:09.225Z,7.17
2019-03-28T01:14:51.669Z,7.93
2019-03-28T01:17:33.727Z,7.77
2019-03-28T01:20:15.587Z,8.10
2019-03-28T01:22:57.547Z,9.27
2019-03-28T01:25:40.103Z,8.33
2019-03-28T01:28:22.535Z,8.53
2019-03-28T01:31:04.525Z,8.40
2019-03-28T01:33:46.487Z,8.33
2019-03-28T01:36:29.248Z,7.73
2019-03-28T01:39:11.214Z,7.30
2019-03-28T01:41:53.222Z,7.93
2019-03-28T01:44:35.605Z,8.03
2019-03-28T01:47:18.125Z,7.80
2019-03-28T01:50:00.177Z,7.73
2019-03-28T01:52:42.143Z,7.57
2019-03-28T01:55:24.660Z,7.50
2019-03-28T01:58:06.776Z,7.40
2019-03-28T02:00:48.693Z,6.70
2019-03-28T02:03:30.987Z,6.53
2019-03-28T02:06:13.010Z,6.27
2019-03-28T02:08:57.685Z,6.00
2019-03-28T02:11:39.883Z,6.70
2019-03-28T02:14:22.399Z,6.20
2019-03-28T02:17:04.879Z,6.00
2019-03-28T02:19:46.737Z,6.30
2019-03-28T02:22:29.339Z,6.90
2019-03-28T02:25:11.311Z,6.30
2019-03-28T02:27:53.850Z,6.80
2019-03-28T02:30:36.102Z,5.63
2019-03-28T02:33:18.131Z,6.70
2019-03-28T02:35:59.987Z,5.67
2019-03-28T02:38:42.379Z,5.63
2019-03-28T02:41:24.691Z,6.20
2019-03-28T02:44:07.273Z,6.47
2019-03-28T02:46:49.007Z,6.90
2019-03-28T02:49:31.515Z,6.13
2019-03-28T02:52:13.663Z,6.30
2019-03-28T02:54:55.407Z,5.90
2019-03-28T02:57:41.391Z,5.90
2019-03-28T03:00:21.657Z,6.13
2019-03-28T03:03:04.093Z,6.60
2019-03-28T03:05:46.108Z,6.10
2019-03-28T03:08:28.036Z,5.87
2019-03-28T03:11:10.302Z,4.90
2019-03-28T03:13:52.509Z,5.87
2019-03-28T03:16:34.329Z,5.77
2019-03-28T03:19:16.555Z,6.50
2019-03-28T03:21:58.820Z,5.80
2019-03-28T03:24:40.722Z,5.77
2019-03-28T03:27:22.618Z,5.90
2019-03-28T03:30:04.731Z,5.63
2019-03-28T03:32:46.513Z,6.50
2019-03-28T03:35:28.572Z,5.43
2019-03-28T03:38:10.364Z,6.90
2019-03-28T03:40:52.766Z,5.27
2019-03-28T03:43:35.373Z,6.60
2019-03-28T03:46:17.479Z,6.27
2019-03-28T03:48:59.368Z,5.40
2019-03-28T03:51:41.362Z,6.03
2019-03-28T03:54:23.250Z,6.43
2019-03-28T03:57:05.552Z,6.23
2019-03-28T03:59:47.626Z,5.87
2019-03-28T04:02:29.917Z,6.17
2019-03-28T04:05:12.662Z,5.80
2019-03-28T04:07:54.366Z,5.90
2019-03-28T04:10:36.383Z,6.37
2019-03-28T04:13:18.344Z,5.93
2019-03-28T04:16:00.405Z,6.00
2019-03-28T04:18:42.352Z,6.40
2019-03-28T04:21:24.411Z,6.57
2019-03-28T04:24:06.300Z,5.73
2019-03-28T04:26:47.974Z,6.30
2019-03-28T04:29:30.643Z,5.90
2019-03-28T04:32:12.515Z,6.00
2019-03-28T04:34:54.921Z,5.73
2019-03-28T04:37:36.677Z,5.83
2019-03-28T04:40:18.996Z,5.60
2019-03-28T04:43:01.492Z,5.57
2019-03-28T04:45:43.627Z,6.13
2019-03-28T04:48:26.093Z,5.60
2019-03-28T04:51:11.818Z,6.53
2019-03-28T04:53:56.359Z,5.00
2019-03-28T04:56:39.078Z,5.13
2019-03-28T04:59:21.384Z,5.20
2019-03-28T05:02:05.029Z,5.33
2019-03-28T05:04:47.289Z,5.70
2019-03-28T05:07:29.254Z,5.60
2019-03-28T05:10:11.312Z,5.43
2019-03-28T05:12:53.080Z,5.20
2019-03-28T05:15:34.936Z,5.40
2019-03-28T05:18:17.464Z,5.60
2019-03-28T05:20:59.749Z,5.67
2019-03-28T05:23:41.886Z,5.20
2019-03-28T05:26:23.796Z,6.00
2019-03-28T05:29:05.679Z,6.03
2019-03-28T05:31:47.834Z,6.30
2019-03-28T05:34:30.041Z,6.50
2019-03-28T05:37:11.949Z,6.43
2019-03-28T05:39:53.776Z,5.40
2019-03-28T05:42:35.544Z,6.00
2019-03-28T05:45:17.416Z,6.70
2019-03-28T05:48:00.466Z,7.20
2019-03-28T05:50:42.763Z,6.43
2019-03-28T05:53:24.721Z,6.30
2019-03-28T05:56:06.882Z,5.77
2019-03-28T05:58:48.887Z,7.40
2019-03-28T06:01:31.146Z,7.50
2019-03-28T06:04:12.978Z,7.13
2019-03-28T06:06:55.179Z,6.50
2019-03-28T06:09:40.102Z,6.73
2019-03-28T06:12:22.474Z,6.50
2019-03-28T06:15:04.520Z,6.17
2019-03-28T06:17:46.447Z,6.60
2019-03-28T06:20:28.189Z,6.40
2019-03-28T06:23:10.559Z,6.47
2019-03-28T06:25:52.715Z,6.57
2019-03-28T06:28:34.890Z,5.70
2019-03-28T06:31:17.001Z,6.20
2019-03-28T06:33:59.276Z,5.80
2019-03-28T06:36:41.327Z,6.10
2019-03-28T06:39:23.515Z,5.83
2019-03-28T06:42:06.019Z,5.80
2019-03-28T06:44:48.326Z,5.83
2019-03-28T06:47:30.132Z,5.33
2019-03-28T06:50:11.852Z,5.57
2019-03-28T06:52:53.885Z,6.00
2019-03-28T06:55:37.017Z,5.13
2019-03-28T06:58:19.977Z,5.80
2019-03-28T07:01:02.240Z,5.57
2019-03-28T07:03:47.154Z,5.17
2019-03-28T07:06:28.085Z,5.20
2019-03-28T07:09:10.006Z,5.33
2019-03-28T07:11:52.016Z,5.73
2019-03-28T07:14:34.293Z,5.77
2019-03-28T07:17:16.534Z,5.13
2019-03-28T07:19:58.344Z,5.73
2019-03-28T07:22:41.004Z,5.50
2019-03-28T07:25:25.448Z,5.97
2019-03-28T07:28:07.051Z,6.13
2019-03-28T07:30:49.093Z,6.07
2019-03-28T07:33:31.562Z,5.33
2019-03-28T07:36:13.826Z,6.33
2019-03-28T07:38:56.441Z,6.03
2019-03-28T07:41:38.752Z,6.30
2019-03-28T07:44:20.439Z,5.97
2019-03-28T07:47:03.107Z,6.80
2019-03-28T07:49:45.594Z,7.53
2019-03-28T07:52:28.327Z,8.17
2019-03-28T07:55:10.425Z,9.40
2019-03-28T07:57:52.715Z,9.67
2019-03-28T08:00:34.824Z,9.33
2019-03-28T08:03:17.336Z,9.60
2019-03-28T08:05:59.776Z,9.93
2019-03-28T08:08:44.150Z,11.03
2019-03-28T08:11:26.154Z,9.93
2019-03-28T08:14:08.011Z,11.90
2019-03-28T08:16:50.050Z,11.90
2019-03-28T08:19:32.019Z,11.43
2019-03-28T08:22:14.383Z,12.93
2019-03-28T08:24:56.702Z,13.73
2019-03-28T08:27:38.743Z,12.47
2019-03-28T08:30:20.720Z,13.73
2019-03-28T08:33:02.940Z,13.00
2019-03-28T08:35:45.455Z,13.20
2019-03-28T08:38:27.994Z,13.00
2019-03-28T08:41:09.774Z,13.60
2019-03-28T08:43:52.221Z,13.57
2019-03-28T08:46:34.044Z,12.20
2019-03-28T08:49:15.807Z,11.90
2019-03-28T08:51:57.868Z,13.70
2019-03-28T08:54:39.941Z,13.27
2019-03-28T08:57:22.119Z,11.77
2019-03-28T09:00:04.216Z,11.10
2019-03-28T09:02:45.143Z,12.20
2019-03-28T09:08:49.463Z,12.70
2019-03-28T09:11:58.802Z,12.10
2019-03-28T09:15:27.412Z,10.33
2019-03-28T09:21:52.310Z,12.30
2019-03-28T09:41:12.511Z,11.53
2019-03-28T09:44:21.820Z,10.83
2019-03-28T09:51:01.029Z,11.80
2019-03-28T09:54:03.078Z,11.60
2019-03-28T09:56:45.212Z,9.80
2019-03-28T09:59:26.875Z,9.57
2019-03-28T10:02:08.856Z,10.50
2019-03-28T10:04:50.700Z,10.07
2019-03-28T10:07:32.531Z,9.60
2019-03-28T10:10:14.765Z,11.33
2019-03-28T10:12:56.772Z,10.70
2019-03-28T10:15:39.313Z,11.70
2019-03-28T10:18:21.846Z,9.93
2019-03-28T10:21:03.887Z,11.30
2019-03-28T10:23:46.327Z,10.97
2019-03-28T10:26:28.455Z,10.53
2019-03-28T10:29:10.518Z,11.30
2019-03-28T10:31:52.528Z,10.60
2019-03-28T10:34:34.477Z,9.60
2019-03-28T10:37:16.443Z,11.30
2019-03-28T10:39:58.300Z,10.80
2019-03-28T10:42:40.563Z,8.90
2019-03-28T10:45:22.905Z,9.63
2019-03-28T10:48:05.050Z,10.97
2019-03-28T10:50:47.231Z,10.20
2019-03-28T10:53:30.208Z,8.80
2019-03-28T10:56:21.483Z,10.17
2019-03-28T10:58:56.722Z,10.43
2019-03-28T11:01:49.749Z,9.17
2019-03-28T11:04:22.573Z,9.10
2019-03-28T11:10:30.400Z,10.07
2019-03-28T11:13:38.683Z,9.87
2019-03-28T11:20:03.822Z,9.37
2019-03-28T11:22:53.579Z,10.60
2019-03-28T11:26:02.970Z,8.40
2019-03-28T11:32:19.750Z,9.83
2019-03-28T11:35:02.273Z,8.27
2019-03-28T11:37:44.334Z,9.00
2019-03-28T11:40:25.980Z,8.07
2019-03-28T11:43:08.357Z,8.93
2019-03-28T11:45:50.231Z,8.20
2019-03-28T11:48:32.762Z,9.03
2019-03-28T11:51:14.930Z,8.60
2019-03-28T11:53:57.331Z,8.50
2019-03-28T11:56:39.264Z,8.60
2019-03-28T11:59:21.298Z,8.90
2019-03-28T12:02:19.048Z,9.27
2019-03-28T12:04:46.979Z,8.17
2019-03-28T12:07:29.210Z,6.73
2019-03-28T12:10:11.637Z,7.67
2019-03-28T12:12:54.044Z,8.13
2019-03-28T12:15:36.164Z,7.50
2019-03-28T12:18:18.331Z,7.30
2019-03-28T12:21:00.234Z,7.20
2019-03-28T12:23:42.209Z,6.67
2019-03-28T12:26:24.080Z,7.23
2019-03-28T12:29:06.199Z,7.63
2019-03-28T12:31:48.798Z,7.40
2019-03-28T12:34:30.959Z,7.37
2019-03-28T12:37:12.991Z,8.27
2019-03-28T12:39:55.610Z,6.50
2019-03-28T12:42:37.626Z,6.77
2019-03-28T12:45:19.723Z,6.07
2019-03-28T12:48:01.715Z,5.87
2019-03-28T12:50:44.110Z,5.23
2019-03-28T12:53:26.143Z,4.03
2019-03-28T12:56:07.786Z,5.63
2019-03-28T12:58:50.129Z,3.80
2019-03-28T13:01:32.156Z,3.50
2019-03-28T13:04:14.710Z,4.07
2019-03-28T13:06:56.646Z,4.50
2019-03-28T13:09:39.309Z,4.83
2019-03-28T13:12:20.245Z,5.03
2019-03-28T13:18:25.121Z,4.90
2019-03-28T13:24:56.173Z,3.87
2019-03-28T13:27:38.778Z,4.20
2019-03-28T13:30:21.027Z,4.50
2019-03-28T13:33:02.940Z,5.50
2019-03-28T13:35:44.881Z,4.67
2019-03-28T13:38:27.238Z,4.60
2019-03-28T13:41:09.405Z,3.83
2019-03-28T13:43:51.399Z,4.50
2019-03-28T13:46:33.432Z,3.33
2019-03-28T13:49:15.454Z,3.90
2019-03-28T13:51:58.024Z,3.93
2019-03-28T13:54:40.027Z,3.50
2019-03-28T13:57:22.221Z,4.20
2019-03-28T14:00:03.974Z,4.47
2019-03-28T14:02:57.051Z,3.77
2019-03-28T14:05:29.392Z,3.80
2019-03-28T14:08:11.902Z,3.53
2019-03-28T14:10:54.145Z,2.80
2019-03-28T14:13:35.969Z,3.50
2019-03-28T14:16:18.398Z,3.53
2019-03-28T14:19:00.272Z,2.90
2019-03-28T14:21:42.639Z,3.10
2019-03-28T14:24:24.773Z,2.90
2019-03-28T14:27:06.870Z,3.30
2019-03-28T14:29:48.997Z,2.80
2019-03-28T14:32:33.086Z,3.37
2019-03-28T14:35:14.935Z,3.30
2019-03-28T14:37:56.988Z,3.30
2019-03-28T14:40:38.705Z,2.93
2019-03-28T14:43:21.206Z,3.10
2019-03-28T14:46:03.021Z,2.80
2019-03-28T14:48:45.703Z,3.20
2019-03-28T14:51:27.663Z,2.77
2019-03-28T14:54:09.761Z,3.30
2019-03-28T14:56:51.961Z,3.17
2019-03-28T14:59:34.702Z,3.63
2019-03-28T15:02:16.624Z,3.73
2019-03-28T15:04:59.096Z,4.10
2019-03-28T15:07:40.863Z,3.23
2019-03-28T15:10:22.987Z,3.27
2019-03-28T15:13:04.960Z,3.40
2019-03-28T15:15:47.321Z,3.30
2019-03-28T15:18:30.021Z,3.50
2019-03-28T15:21:11.822Z,3.50
2019-03-28T15:23:53.535Z,3.13
2019-03-28T15:26:35.630Z,3.57
2019-03-28T15:29:17.539Z,3.97
2019-03-28T15:31:59.915Z,4.00
2019-03-28T15:34:42.068Z,3.40
2019-03-28T15:37:24.587Z,3.97
2019-03-28T15:40:06.323Z,3.90
2019-03-28T15:42:48.308Z,3.90
2019-03-28T15:45:30.467Z,3.67
2019-03-28T15:48:12.254Z,3.93
2019-03-28T15:50:54.229Z,3.30
2019-03-28T15:53:37.259Z,2.93
2019-03-28T15:56:19.496Z,3.10
2019-03-28T15:59:01.503Z,3.80
2019-03-28T16:01:43.403Z,3.53
2019-03-28T16:04:25.817Z,3.53
2019-03-28T16:07:08.309Z,3.53
2019-03-28T16:09:51.037Z,3.87
2019-03-28T16:12:32.761Z,3.40
2019-03-28T16:15:15.043Z,3.43
2019-03-28T16:17:57.839Z,2.90
2019-03-28T16:20:39.934Z,3.23
2019-03-28T16:23:21.740Z,3.60
2019-03-28T16:26:03.980Z,3.80
2019-03-28T16:28:46.093Z,3.67
2019-03-28T16:31:28.831Z,3.97
2019-03-28T16:34:10.679Z,4.07
2019-03-28T16:36:52.806Z,3.40
2019-03-28T16:39:35.060Z,4.17
2019-03-28T16:42:17.550Z,4.50
2019-03-28T16:44:59.283Z,4.60
2019-03-28T16:47:41.291Z,4.50
2019-03-28T16:50:23.264Z,4.20
2019-03-28T16:53:05.315Z,3.97
2019-03-28T16:55:47.264Z,3.73
2019-03-28T16:58:29.052Z,3.47
2019-03-28T17:01:11.010Z,3.93
2019-03-28T17:03:53.294Z,4.30
2019-03-28T17:06:35.146Z,3.30
2019-03-28T17:09:17.671Z,3.57
2019-03-28T17:11:59.442Z,4.40
2019-03-28T17:14:41.546Z,3.60
2019-03-28T17:17:23.557Z,4.13
2019-03-28T17:20:05.811Z,3.73
2019-03-28T17:22:48.006Z,4.40
2019-03-28T17:25:30.508Z,3.70
2019-03-28T17:28:12.641Z,3.37
2019-03-28T17:30:55.642Z,3.60
2019-03-28T17:33:37.266Z,3.43
2019-03-28T17:36:19.786Z,3.70
2019-03-28T17:39:02.094Z,3.40
2019-03-28T17:41:44.087Z,4.10
2019-03-28T17:44:26.186Z,3.20
2019-03-28T17:47:08.188Z,3.60
2019-03-28T17:49:50.374Z,3.53
2019-03-28T17:52:32.875Z,3.90
2019-03-28T17:55:14.840Z,3.70
2019-03-28T17:57:57.249Z,3.33
2019-03-28T18:00:40.010Z,4.00
2019-03-28T18:03:31.034Z,3.90
2019-03-28T18:06:06.296Z,3.50
2019-03-28T18:08:48.358Z,3.23
2019-03-28T18:11:30.371Z,3.23
2019-03-28T18:14:12.385Z,2.60
2019-03-28T18:16:54.676Z,3.10
2019-03-28T18:19:36.515Z,3.10
2019-03-28T18:22:18.641Z,3.20
2019-03-28T18:25:00.962Z,3.70
2019-03-28T18:27:44.967Z,3.40
2019-03-28T18:30:27.342Z,3.70
2019-03-28T18:33:10.851Z,3.40
2019-03-28T18:35:53.454Z,2.60
2019-03-28T18:38:36.909Z,2.77
2019-03-28T18:41:19.467Z,3.20
2019-03-28T18:44:01.592Z,2.87
2019-03-28T18:46:44.200Z,2.80
2019-03-28T18:49:25.827Z,3.03
2019-03-28T18:52:08.364Z,3.10
2019-03-28T18:54:50.375Z,3.90
2019-03-28T18:57:32.680Z,3.77
2019-03-28T19:00:14.736Z,4.00
2019-03-28T19:02:57.292Z,3.10
2019-03-28T19:05:39.391Z,3.47
2019-03-28T19:08:21.113Z,3.20
2019-03-28T19:11:03.940Z,3.40
2019-03-28T19:13:46.113Z,3.83
2019-03-28T19:16:28.380Z,3.60
2019-03-28T19:19:10.568Z,3.33
2019-03-28T19:21:55.749Z,3.70
2019-03-28T19:24:36.788Z,3.07
2019-03-28T19:27:19.068Z,2.80
2019-03-28T19:30:00.967Z,2.77
2019-03-28T19:32:41.891Z,3.20
2019-03-28T19:42:17.835Z,2.80
2019-03-28T19:55:42.304Z,2.87
2019-03-28T19:58:51.614Z,2.73
2019-03-28T20:02:02.505Z,2.57
2019-03-28T20:05:11.285Z,2.93
2019-03-28T20:11:15.987Z,3.03
2019-03-28T20:14:05.923Z,4.50
2019-03-28T20:17:15.277Z,3.77
2019-03-28T20:23:40.526Z,2.50
2019-03-28T20:26:30.667Z,2.63
2019-03-28T20:29:33.372Z,2.20
2019-03-28T20:32:15.741Z,2.67
2019-03-28T20:34:58.244Z,2.70
2019-03-28T20:37:40.274Z,2.37
2019-03-28T20:40:22.591Z,2.80
2019-03-28T20:43:07.651Z,2.67
2019-03-28T20:45:49.656Z,2.87
2019-03-28T20:48:31.367Z,2.60
2019-03-28T20:51:14.453Z,2.90
2019-03-28T20:53:56.758Z,2.73
2019-03-28T20:56:39.038Z,3.07
2019-03-28T20:59:21.300Z,3.10
2019-03-28T21:02:03.685Z,2.70
2019-03-28T21:04:45.755Z,3.40
2019-03-28T21:07:29.133Z,2.80
2019-03-28T21:10:11.735Z,2.90
2019-03-28T21:12:54.101Z,3.13
2019-03-28T21:15:37.029Z,3.40
2019-03-28T21:18:19.225Z,4.10
2019-03-28T21:21:02.807Z,3.60
2019-03-28T21:23:44.736Z,3.90
2019-03-28T21:26:27.184Z,4.00
2019-03-28T21:29:09.063Z,3.90
2019-03-28T21:31:51.994Z,3.87
2019-03-28T21:34:35.124Z,3.80
2019-03-28T21:37:17.867Z,3.97
2019-03-28T21:40:00.927Z,4.10
2019-03-28T21:42:43.602Z,4.57
2019-03-28T21:45:25.756Z,4.40
2019-03-28T21:48:08.186Z,4.20
2019-03-28T21:50:50.560Z,4.03
2019-03-28T21:53:33.365Z,4.00
2019-03-28T21:56:15.167Z,4.60
2019-03-28T21:58:57.083Z,5.10
2019-03-28T22:01:39.121Z,5.17
2019-03-28T22:04:21.564Z,5.17
2019-03-28T22:07:03.967Z,4.83
2019-03-28T22:09:46.155Z,5.00
2019-03-28T22:12:28.270Z,4.60
2019-03-28T22:15:10.290Z,4.27
2019-03-28T22:17:52.402Z,4.90
2019-03-28T22:20:35.028Z,4.67
2019-03-28T22:23:16.288Z,4.70
2019-03-28T22:26:06.123Z,4.93
2019-03-28T22:29:07.627Z,5.13
2019-03-28T22:31:50.198Z,4.87
2019-03-28T22:34:32.051Z,5.73
2019-03-28T22:37:14.338Z,5.10
2019-03-28T22:39:56.581Z,4.70
2019-03-28T22:42:38.736Z,4.90
2019-03-28T22:45:20.489Z,4.90
2019-03-28T22:48:10.746Z,4.50
2019-03-28T22:50:45.846Z,5.77
2019-03-28T22:53:28.301Z,5.60
2019-03-28T22:56:10.952Z,5.37
2019-03-28T22:58:53.533Z,5.40
2019-03-28T23:01:36.830Z,4.83
2019-03-28T23:04:17.907Z,5.30
2019-03-28T23:07:11.233Z,5.77
2019-03-28T23:13:35.124Z,5.43
2019-03-28T23:16:06.508Z,5.70
2019-03-28T23:18:37.496Z,4.93
2019-03-28T23:21:08.641Z,5.10
2019-03-28T23:23:39.707Z,5.73
2019-03-28T23:26:10.869Z,5.67
2019-03-28T23:28:41.938Z,5.50
2019-03-28T23:31:13.026Z,5.53
2019-03-28T23:33:44.110Z,5.20
2019-03-28T23:36:15.217Z,5.43
2019-03-28T23:38:46.319Z,5.10
2019-03-28T23:41:17.342Z,5.10
2019-03-28T23:43:48.688Z,4.90
2019-03-28T23:46:19.754Z,5.23
2019-03-28T23:48:51.129Z,6.10
2019-03-28T23:51:22.181Z,5.13
2019-03-28T23:53:53.284Z,6.20
2019-03-28T23:56:24.327Z,6.33
2019-03-28T23:58:55.467Z,6.13
